createdAt,value
2022-09-24T00:03:23.835Z,5.07
2022-09-24T00:08:17.643Z,5.30
2022-09-24T00:13:13.330Z,4.53
2022-09-24T00:18:07.993Z,4.10
2022-09-24T00:23:01.560Z,4.63
2022-09-24T00:27:53.796Z,4.47
2022-09-24T00:32:46.048Z,4.80
2022-09-24T00:37:43.951Z,5.70
2022-09-24T00:42:36.424Z,4.80
2022-09-24T00:48:09.140Z,5.53
2022-09-24T00:53:09.765Z,4.53
2022-09-24T00:58:06.105Z,4.73
2022-09-24T01:03:23.267Z,5.20
2022-09-24T01:08:17.579Z,5.23
2022-09-24T01:13:44.987Z,4.33
2022-09-24T01:19:14.438Z,4.80
2022-09-24T01:24:14.485Z,4.77
2022-09-24T01:29:28.482Z,4.63
2022-09-24T01:34:27.188Z,5.07
2022-09-24T01:39:21.051Z,5.50
2022-09-24T01:44:13.944Z,5.47
2022-09-24T01:49:07.370Z,5.40
2022-09-24T01:54:23.983Z,5.93
2022-09-24T01:59:34.682Z,5.17
2022-09-24T02:04:28.638Z,4.97
2022-09-24T02:09:38.566Z,4.90
2022-09-24T02:14:32.581Z,4.50
2022-09-24T02:19:28.986Z,4.87
2022-09-24T02:24:25.879Z,5.13
2022-09-24T02:29:21.003Z,4.73
2022-09-24T02:34:22.629Z,4.63
2022-09-24T02:39:14.881Z,5.33
2022-09-24T02:45:03.479Z,5.67
2022-09-24T02:51:10.553Z,5.00
2022-09-24T02:57:18.503Z,5.33
2022-09-24T03:03:25.563Z,5.50
2022-09-24T03:09:33.789Z,5.60
2022-09-24T03:15:40.885Z,5.83
2022-09-24T03:21:48.241Z,5.50
2022-09-24T03:27:56.421Z,5.27
2022-09-24T03:34:03.727Z,5.50
2022-09-24T03:40:11.535Z,5.30
2022-09-24T03:46:18.482Z,5.43
2022-09-24T03:52:25.530Z,4.80
2022-09-24T03:58:32.883Z,5.70
2022-09-24T04:04:39.933Z,5.77
2022-09-24T04:10:47.035Z,5.27
2022-09-24T04:16:54.147Z,5.77
2022-09-24T04:23:01.422Z,5.83
2022-09-24T04:29:08.469Z,5.80
2022-09-24T04:35:15.844Z,5.63
2022-09-24T04:41:22.812Z,6.00
2022-09-24T04:46:34.519Z,5.93
2022-09-24T04:51:27.304Z,6.07
2022-09-24T04:56:19.534Z,6.10
2022-09-24T05:01:13.576Z,5.63
2022-09-24T05:06:06.731Z,5.90
2022-09-24T05:10:59.058Z,6.10
2022-09-24T05:15:51.368Z,5.70
2022-09-24T05:20:43.601Z,5.07
2022-09-24T05:25:56.006Z,5.47
2022-09-24T05:30:48.677Z,5.30
2022-09-24T05:35:40.905Z,4.73
2022-09-24T05:40:48.321Z,4.60
2022-09-24T05:45:42.445Z,4.20
2022-09-24T05:50:35.141Z,4.77
2022-09-24T05:55:32.214Z,5.87
2022-09-24T06:00:25.007Z,5.23
2022-09-24T06:05:17.798Z,5.00
2022-09-24T06:10:10.574Z,4.67
2022-09-24T06:15:03.345Z,4.93
2022-09-24T06:19:58.110Z,4.47
2022-09-24T06:24:51.490Z,4.67
2022-09-24T06:29:43.818Z,4.90
2022-09-24T06:34:36.151Z,4.37
2022-09-24T06:39:28.676Z,4.33
2022-09-24T06:45:16.747Z,4.67
2022-09-24T06:51:24.511Z,3.87
2022-09-24T06:57:31.527Z,4.17
2022-09-24T07:03:38.970Z,4.27
2022-09-24T07:09:45.872Z,4.57
2022-09-24T07:15:53.294Z,4.13
2022-09-24T07:22:00.186Z,3.83
2022-09-24T07:28:08.660Z,3.60
2022-09-24T07:34:15.625Z,4.37
2022-09-24T07:40:22.770Z,3.17
2022-09-24T07:46:29.761Z,3.70
2022-09-24T07:52:37.016Z,3.87
2022-09-24T07:58:44.493Z,3.67
2022-09-24T08:04:51.592Z,3.40
2022-09-24T08:17:07.975Z,4.57
2022-09-24T08:23:14.828Z,3.33
2022-09-24T08:29:22.129Z,4.53
2022-09-24T08:35:29.341Z,3.37
2022-09-24T08:41:21.356Z,3.70
2022-09-24T08:46:50.293Z,3.57
2022-09-24T08:52:02.943Z,4.23
2022-09-24T08:56:57.371Z,4.13
2022-09-24T09:02:13.656Z,3.00
2022-09-24T09:07:20.518Z,3.03
2022-09-24T09:12:26.713Z,4.77
2022-09-24T09:17:42.811Z,2.50
2022-09-24T09:22:41.833Z,3.00
2022-09-24T09:27:34.242Z,3.30
2022-09-24T09:32:32.704Z,2.90
2022-09-24T09:37:36.619Z,2.90
2022-09-24T09:42:37.562Z,2.47
2022-09-24T09:47:46.191Z,3.27
2022-09-24T09:52:40.270Z,3.07
2022-09-24T09:57:36.149Z,2.53
2022-09-24T10:02:33.706Z,2.70
2022-09-24T10:07:26.224Z,2.90
2022-09-24T10:12:24.472Z,2.70
2022-09-24T10:17:19.461Z,2.30
2022-09-24T10:22:25.434Z,2.50
2022-09-24T10:27:37.714Z,2.83
2022-09-24T10:32:30.357Z,3.00
2022-09-24T10:37:22.976Z,2.30
2022-09-24T10:42:26.794Z,2.75
2022-09-24T10:47:45.203Z,2.33
2022-09-24T10:53:21.290Z,2.35
2022-09-24T10:59:29.365Z,2.15
2022-09-24T11:05:36.562Z,3.38
2022-09-24T11:11:43.614Z,2.08
2022-09-24T11:17:52.367Z,2.03
2022-09-24T11:23:59.686Z,3.00
2022-09-24T11:30:06.890Z,1.88
2022-09-24T11:36:13.797Z,1.70
2022-09-24T11:42:20.947Z,1.97
2022-09-24T11:48:28.451Z,1.60
2022-09-24T11:54:35.926Z,2.30
2022-09-24T12:00:43.250Z,2.30
2022-09-24T12:06:50.477Z,1.70
2022-09-24T12:12:59.087Z,2.43
2022-09-24T12:19:07.225Z,2.30
2022-09-24T12:25:14.687Z,2.10
2022-09-24T12:31:22.926Z,2.20
2022-09-24T12:37:30.143Z,2.57
2022-09-24T12:43:37.453Z,5.00
2022-09-24T12:49:44.786Z,2.27
2022-09-24T12:55:02.642Z,2.00
2022-09-24T13:00:04.155Z,2.17
2022-09-24T13:05:02.891Z,2.30
2022-09-24T13:09:55.193Z,2.03
2022-09-24T13:15:08.750Z,7.07
2022-09-24T13:20:09.370Z,2.10
2022-09-24T13:25:08.211Z,3.80
2022-09-24T13:30:12.927Z,3.57
2022-09-24T13:35:11.687Z,1.60
2022-09-24T13:40:20.324Z,1.97
2022-09-24T13:45:20.283Z,1.80
2022-09-24T13:50:16.017Z,2.57
2022-09-24T13:55:31.487Z,1.97
2022-09-24T14:00:29.567Z,2.30
2022-09-24T14:05:24.158Z,1.93
2022-09-24T14:10:17.549Z,1.80
2022-09-24T14:15:18.681Z,1.90
2022-09-24T14:20:16.231Z,2.57
2022-09-24T14:25:18.261Z,2.17
2022-09-24T14:30:22.283Z,1.93
2022-09-24T14:35:21.556Z,1.87
2022-09-24T14:40:20.192Z,1.80
2022-09-24T14:45:25.182Z,1.70
2022-09-24T14:50:43.983Z,2.00
2022-09-24T14:55:42.012Z,3.20
2022-09-24T15:00:49.027Z,2.00
2022-09-24T15:05:41.673Z,1.47
2022-09-24T15:10:34.551Z,1.80
2022-09-24T15:15:32.277Z,1.50
2022-09-24T15:20:24.888Z,3.00
2022-09-24T15:25:17.480Z,3.00
2022-09-24T15:30:20.119Z,1.87
2022-09-24T15:35:16.413Z,2.40
2022-09-24T15:40:17.958Z,2.40
2022-09-24T15:45:25.320Z,2.20
2022-09-24T15:50:19.498Z,2.40
2022-09-24T15:55:21.663Z,3.00
2022-09-24T16:00:19.624Z,2.90
2022-09-24T16:05:14.377Z,3.07
2022-09-24T16:10:07.918Z,3.57
2022-09-24T16:15:01.201Z,3.53
2022-09-24T16:19:54.220Z,3.57
2022-09-24T16:24:49.759Z,3.73
2022-09-24T16:29:45.345Z,3.33
2022-09-24T16:34:41.462Z,3.97
2022-09-24T16:39:34.014Z,4.87
2022-09-24T16:44:26.357Z,5.27
2022-09-24T16:49:26.823Z,5.17
2022-09-24T16:54:20.267Z,5.20
2022-09-24T16:59:16.970Z,4.90
2022-09-24T17:04:09.794Z,4.93
2022-09-24T17:09:22.590Z,4.90
2022-09-24T17:14:16.743Z,6.00
2022-09-24T17:19:10.873Z,5.40
2022-09-24T17:24:04.216Z,5.17
2022-09-24T17:28:57.135Z,6.20
2022-09-24T17:34:18.895Z,6.80
2022-09-24T17:39:13.545Z,7.30
2022-09-24T17:44:07.404Z,6.67
2022-09-24T17:49:00.763Z,6.67
2022-09-24T17:53:56.718Z,7.17
2022-09-24T17:58:49.383Z,6.47
2022-09-24T18:04:38.470Z,8.33
2022-09-24T18:10:45.465Z,9.37
2022-09-24T18:16:55.589Z,8.23
2022-09-24T18:23:04.426Z,8.90
2022-09-24T18:29:13.253Z,7.97
2022-09-24T18:35:20.477Z,8.40
2022-09-24T18:41:31.157Z,9.37
2022-09-24T18:47:38.153Z,8.27
2022-09-24T18:53:46.759Z,7.50
2022-09-24T18:59:54.041Z,8.97
2022-09-24T19:06:01.137Z,11.47
2022-09-24T19:12:08.223Z,10.50
2022-09-24T19:18:15.643Z,10.90
2022-09-24T19:24:22.804Z,12.00
2022-09-24T19:30:29.898Z,11.50
2022-09-24T19:36:43.063Z,13.33
2022-09-24T19:42:50.759Z,22.43
2022-09-24T19:48:59.130Z,16.17
2022-09-24T19:55:07.435Z,13.17
2022-09-24T20:01:18.187Z,13.03
2022-09-24T20:06:48.202Z,14.63
2022-09-24T20:11:40.711Z,18.63
2022-09-24T20:16:33.392Z,16.30
2022-09-24T20:21:28.476Z,12.47
2022-09-24T20:26:39.711Z,12.73
2022-09-24T20:31:33.802Z,14.73
2022-09-24T20:36:26.696Z,14.27
2022-09-24T20:41:23.156Z,14.10
2022-09-24T20:46:22.200Z,11.33
2022-09-24T20:51:18.539Z,11.20
2022-09-24T20:56:11.814Z,9.57
2022-09-24T21:01:04.661Z,11.10
2022-09-24T21:06:17.137Z,15.57
2022-09-24T21:11:12.559Z,11.13
2022-09-24T21:16:05.359Z,12.13
2022-09-24T21:21:02.237Z,9.43
2022-09-24T21:25:55.111Z,9.20
2022-09-24T21:30:58.298Z,9.20
2022-09-24T21:35:50.615Z,8.10
2022-09-24T21:40:43.201Z,8.30
2022-09-24T21:45:35.517Z,8.70
2022-09-24T21:50:28.357Z,9.77
2022-09-24T21:55:20.517Z,10.30
2022-09-24T22:00:13.914Z,10.13
2022-09-24T22:05:06.793Z,9.03
2022-09-24T22:09:58.926Z,7.80
2022-09-24T22:14:52.482Z,7.47
2022-09-24T22:19:44.681Z,8.70
2022-09-24T22:24:36.979Z,9.67
2022-09-24T22:29:29.256Z,8.03
2022-09-24T22:34:39.809Z,8.23
2022-09-24T22:39:33.234Z,8.37
2022-09-24T22:44:25.456Z,7.97
2022-09-24T22:49:17.633Z,8.17
2022-09-24T22:54:10.052Z,8.60
2022-09-24T22:59:02.550Z,9.37
2022-09-24T23:03:56.342Z,8.63
2022-09-24T23:08:49.389Z,8.27
2022-09-24T23:13:44.042Z,8.27
2022-09-24T23:18:37.893Z,9.40
2022-09-24T23:24:26.551Z,8.83
2022-09-24T23:30:34.191Z,9.67
2022-09-24T23:36:42.626Z,8.80
2022-09-24T23:42:49.873Z,9.10
2022-09-24T23:48:56.935Z,11.03
2022-09-24T23:55:04.230Z,11.63
